createdAt,value
2023-04-06T00:00:31.841Z,0.00
2023-04-06T00:05:33.636Z,0.00
2023-04-06T00:10:21.795Z,0.00
2023-04-06T00:15:28.083Z,0.00
2023-04-06T00:20:17.139Z,0.00
2023-04-06T00:25:22.976Z,0.00
2023-04-06T00:30:29.020Z,0.00
2023-04-06T00:35:18.029Z,0.00
2023-04-06T00:40:25.515Z,0.00
2023-04-06T00:45:30.349Z,0.00
2023-04-06T00:50:19.381Z,0.00
2023-04-06T00:55:25.506Z,0.00
2023-04-06T01:00:31.479Z,0.00
2023-04-06T01:05:21.177Z,0.00
2023-04-06T01:10:25.886Z,0.00
2023-04-06T01:15:32.000Z,0.00
2023-04-06T01:20:22.095Z,0.00
2023-04-06T01:25:26.805Z,0.00
2023-04-06T01:30:32.894Z,0.00
2023-04-06T01:35:22.236Z,0.00
2023-04-06T01:40:28.224Z,0.00
2023-04-06T01:45:17.023Z,0.00
2023-04-06T01:50:23.194Z,0.00
2023-04-06T01:55:29.299Z,0.00
2023-04-06T02:00:22.901Z,0.00
2023-04-06T02:05:24.603Z,0.00
2023-04-06T02:10:30.620Z,0.00
2023-04-06T02:15:19.637Z,0.00
2023-04-06T02:20:25.793Z,0.00
2023-04-06T02:25:31.747Z,0.00
2023-04-06T02:30:20.730Z,0.00
2023-04-06T02:35:26.908Z,0.00
2023-04-06T02:40:32.542Z,0.00
2023-04-06T02:45:21.576Z,0.00
2023-04-06T02:50:27.959Z,0.00
2023-04-06T02:55:16.646Z,0.00
2023-04-06T03:00:23.025Z,0.00
2023-04-06T03:05:29.112Z,0.00
2023-04-06T03:10:18.264Z,0.00
2023-04-06T03:15:24.221Z,0.00
2023-04-06T03:20:30.317Z,0.00
2023-04-06T03:25:19.533Z,0.00
2023-04-06T03:30:27.243Z,0.00
2023-04-06T03:35:31.731Z,0.00
2023-04-06T03:40:21.258Z,0.00
2023-04-06T03:45:25.940Z,0.00
2023-04-06T03:50:31.969Z,0.00
2023-04-06T03:55:21.187Z,0.00
2023-04-06T04:00:33.192Z,0.00
2023-04-06T04:05:32.952Z,0.00
2023-04-06T04:10:21.878Z,0.00
2023-04-06T04:15:28.347Z,0.00
2023-04-06T04:20:16.773Z,0.00
2023-04-06T04:25:22.737Z,0.00
2023-04-06T04:30:29.029Z,0.00
2023-04-06T04:35:18.073Z,0.09
2023-04-06T04:40:24.333Z,0.95
2023-04-06T04:45:29.791Z,2.53
2023-04-06T04:50:18.842Z,4.53
2023-04-06T04:55:24.811Z,6.86
2023-04-06T05:00:30.918Z,9.58
2023-04-06T05:05:20.278Z,12.80
2023-04-06T05:10:26.061Z,16.47
2023-04-06T05:15:32.161Z,19.91
2023-04-06T05:20:22.500Z,25.73
2023-04-06T05:25:27.549Z,32.38
2023-04-06T05:30:33.538Z,41.32
2023-04-06T05:35:22.836Z,48.75
2023-04-06T05:40:27.810Z,55.84
2023-04-06T05:45:16.813Z,62.38
2023-04-06T05:50:22.892Z,69.89
2023-04-06T05:55:28.905Z,75.97
2023-04-06T06:00:21.051Z,83.72
2023-04-06T06:05:25.115Z,92.56
2023-04-06T06:10:30.448Z,102.39
2023-04-06T06:15:19.497Z,111.60
2023-04-06T06:20:26.217Z,122.25
2023-04-06T06:25:31.857Z,148.69
2023-04-06T06:30:22.928Z,143.07
2023-04-06T06:35:26.978Z,150.33
2023-04-06T06:40:32.522Z,144.21
2023-04-06T06:45:21.663Z,179.68
2023-04-06T06:50:27.808Z,201.21
2023-04-06T06:55:16.616Z,210.20
2023-04-06T07:00:22.735Z,205.15
2023-04-06T07:05:29.365Z,192.58
2023-04-06T07:10:18.375Z,208.38
2023-04-06T07:15:24.192Z,188.68
2023-04-06T07:20:30.250Z,260.26
2023-04-06T07:25:19.302Z,224.80
2023-04-06T07:30:25.896Z,267.86
2023-04-06T07:35:31.729Z,334.15
2023-04-06T07:40:20.585Z,287.58
2023-04-06T07:45:26.010Z,314.99
2023-04-06T07:50:32.380Z,304.58
2023-04-06T07:55:21.289Z,316.57
2023-04-06T08:00:27.920Z,418.67
2023-04-06T08:05:32.661Z,371.69
2023-04-06T08:10:21.920Z,408.66
2023-04-06T08:15:27.970Z,450.77
2023-04-06T08:20:16.665Z,450.28
2023-04-06T08:25:22.762Z,446.05
2023-04-06T08:30:29.094Z,487.92
2023-04-06T08:35:18.138Z,520.08
2023-04-06T08:40:25.122Z,565.14
2023-04-06T08:45:30.488Z,530.95
2023-04-06T08:50:19.309Z,569.69
2023-04-06T08:55:25.319Z,579.04
2023-04-06T09:00:31.642Z,607.44
2023-04-06T09:05:19.960Z,642.72
2023-04-06T09:10:25.781Z,653.02
2023-04-06T09:15:31.878Z,586.73
2023-04-06T09:20:21.234Z,687.72
2023-04-06T09:25:27.254Z,716.24
2023-04-06T09:30:34.758Z,752.16
2023-04-06T09:35:22.365Z,783.99
2023-04-06T09:40:27.745Z,705.63
2023-04-06T09:45:16.764Z,672.64
2023-04-06T09:50:22.871Z,674.38
2023-04-06T09:55:28.633Z,637.22
2023-04-06T10:00:22.838Z,720.94
2023-04-06T10:05:24.140Z,785.90
2023-04-06T10:10:30.200Z,787.97
2023-04-06T10:15:22.442Z,810.10
2023-04-06T10:20:25.494Z,680.66
2023-04-06T10:25:31.426Z,343.75
2023-04-06T10:30:20.749Z,657.04
2023-04-06T10:35:26.647Z,726.76
2023-04-06T10:40:32.146Z,764.82
2023-04-06T10:45:21.131Z,386.80
2023-04-06T10:50:27.520Z,370.18
2023-04-06T10:55:33.550Z,475.19
2023-04-06T11:00:23.765Z,507.10
2023-04-06T11:05:28.219Z,305.56
2023-04-06T11:10:20.264Z,704.50
2023-04-06T11:15:22.798Z,317.87
2023-04-06T11:20:29.214Z,612.77
2023-04-06T11:25:18.149Z,679.46
2023-04-06T11:30:24.299Z,697.44
2023-04-06T11:35:30.032Z,709.86
2023-04-06T11:40:19.939Z,696.75
2023-04-06T11:45:24.935Z,675.83
2023-04-06T11:50:31.291Z,679.83
2023-04-06T11:55:20.064Z,677.22
2023-04-06T12:00:30.722Z,665.48
2023-04-06T12:05:31.824Z,661.25
2023-04-06T12:10:21.122Z,651.10
2023-04-06T12:15:26.589Z,619.09
2023-04-06T12:20:32.935Z,592.83
2023-04-06T12:25:21.643Z,693.05
2023-04-06T12:30:28.137Z,533.66
2023-04-06T12:35:16.845Z,697.34
2023-04-06T12:40:25.256Z,647.08
2023-04-06T12:45:29.657Z,541.89
2023-04-06T12:50:18.922Z,624.03
2023-04-06T12:55:24.401Z,604.37
2023-04-06T13:00:30.782Z,598.50
2023-04-06T13:05:18.791Z,567.95
2023-04-06T13:10:24.824Z,553.98
2023-04-06T13:15:31.198Z,589.12
2023-04-06T13:20:20.096Z,348.63
2023-04-06T13:25:25.992Z,169.25
2023-04-06T13:30:32.349Z,536.88
2023-04-06T13:35:21.423Z,555.21
2023-04-06T13:40:27.011Z,540.37
2023-04-06T13:45:33.739Z,530.96
2023-04-06T13:50:22.758Z,515.71
2023-04-06T13:55:28.074Z,509.73
2023-04-06T14:00:22.906Z,513.73
2023-04-06T14:05:22.771Z,505.86
2023-04-06T14:10:29.178Z,478.39
2023-04-06T14:15:17.618Z,462.55
2023-04-06T14:20:25.588Z,453.61
2023-04-06T14:25:30.368Z,406.81
2023-04-06T14:30:19.055Z,379.61
2023-04-06T14:35:24.816Z,395.11
2023-04-06T14:40:31.486Z,381.50
2023-04-06T14:45:20.436Z,357.40
2023-04-06T14:50:26.338Z,357.32
2023-04-06T14:55:33.039Z,343.23
2023-04-06T15:00:21.405Z,341.87
2023-04-06T15:05:26.694Z,311.11
2023-04-06T15:10:32.756Z,287.56
2023-04-06T15:15:21.999Z,296.12
2023-04-06T15:20:28.211Z,276.76
2023-04-06T15:25:16.918Z,244.28
2023-04-06T15:30:23.444Z,223.76
2023-04-06T15:35:31.018Z,208.68
2023-04-06T15:40:17.506Z,181.08
2023-04-06T15:45:23.750Z,99.04
2023-04-06T15:50:29.571Z,111.19
2023-04-06T15:55:18.885Z,82.58
2023-04-06T16:00:29.638Z,105.42
2023-04-06T16:05:34.633Z,116.33
2023-04-06T16:10:20.968Z,95.55
2023-04-06T16:15:26.350Z,79.11
2023-04-06T16:20:32.689Z,89.16
2023-04-06T16:25:21.233Z,65.59
2023-04-06T16:30:27.597Z,68.40
2023-04-06T16:35:34.354Z,67.90
2023-04-06T16:40:23.695Z,62.41
2023-04-06T16:45:28.254Z,61.41
2023-04-06T16:50:17.221Z,51.85
2023-04-06T16:55:32.325Z,45.71
2023-04-06T17:00:32.563Z,40.98
2023-04-06T17:05:19.144Z,38.79
2023-04-06T17:10:41.757Z,32.99
2023-04-06T17:15:31.320Z,26.88
2023-04-06T17:20:20.291Z,21.89
2023-04-06T17:25:25.170Z,17.77
2023-04-06T17:30:32.015Z,14.36
2023-04-06T17:35:20.285Z,10.48
2023-04-06T17:40:26.046Z,6.89
2023-04-06T17:45:32.061Z,4.29
2023-04-06T17:50:20.770Z,2.17
2023-04-06T17:55:27.074Z,0.74
2023-04-06T18:00:37.014Z,0.02
2023-04-06T18:05:22.399Z,0.00
2023-04-06T18:10:28.405Z,0.00
2023-04-06T18:15:17.383Z,0.00
2023-04-06T18:20:25.268Z,0.00
2023-04-06T18:25:29.491Z,0.00
2023-04-06T18:30:18.788Z,0.00
2023-04-06T18:35:24.896Z,0.00
2023-04-06T18:40:30.054Z,0.00
2023-04-06T18:45:19.330Z,0.00
2023-04-06T18:50:25.471Z,0.00
2023-04-06T18:55:31.466Z,0.00
2023-04-06T19:00:20.324Z,0.00
2023-04-06T19:05:25.641Z,0.00
2023-04-06T19:10:31.963Z,0.00
2023-04-06T19:15:20.687Z,0.00
2023-04-06T19:20:27.141Z,0.00
2023-04-06T19:25:32.864Z,0.00
2023-04-06T19:30:22.509Z,0.00
2023-04-06T19:35:28.255Z,0.00
2023-04-06T19:40:16.762Z,0.00
2023-04-06T19:45:22.814Z,0.00
2023-04-06T19:50:28.651Z,0.00
2023-04-06T19:55:17.919Z,0.00
2023-04-06T20:00:28.159Z,0.00
2023-04-06T20:05:30.379Z,0.00
2023-04-06T20:10:19.069Z,0.00
2023-04-06T20:15:25.285Z,0.00
2023-04-06T20:20:32.555Z,0.00
2023-04-06T20:25:20.292Z,0.00
2023-04-06T20:30:26.486Z,0.00
2023-04-06T20:35:32.707Z,0.00
2023-04-06T20:40:21.278Z,0.00
2023-04-06T20:45:27.283Z,0.00
2023-04-06T20:50:34.401Z,0.00
2023-04-06T20:55:22.377Z,0.00
2023-04-06T21:00:28.533Z,0.00
2023-04-06T21:05:17.076Z,0.00
2023-04-06T21:10:22.882Z,0.00
2023-04-06T21:15:28.943Z,0.00
2023-04-06T21:20:19.422Z,0.00
2023-04-06T21:25:24.037Z,0.00
2023-04-06T21:30:30.341Z,0.00
2023-04-06T21:35:19.102Z,0.00
2023-04-06T21:40:26.507Z,0.00
2023-04-06T21:45:31.121Z,0.00
2023-04-06T21:50:19.825Z,0.00
2023-04-06T21:55:25.884Z,0.00
2023-04-06T22:00:35.148Z,0.00
2023-04-06T22:05:21.462Z,0.00
2023-04-06T22:10:27.851Z,0.00
2023-04-06T22:15:34.573Z,0.00
2023-04-06T22:20:24.599Z,0.00
2023-04-06T22:25:28.576Z,0.00
2023-04-06T22:30:17.967Z,0.00
2023-04-06T22:35:23.760Z,0.00
2023-04-06T22:40:29.464Z,0.00
2023-04-06T22:45:18.253Z,0.00
2023-04-06T22:50:24.603Z,0.00
2023-04-06T22:55:30.356Z,0.00
2023-04-06T23:00:21.171Z,0.00
2023-04-06T23:05:24.752Z,0.00
2023-04-06T23:10:31.012Z,0.00
2023-04-06T23:15:20.185Z,0.00
2023-04-06T23:20:25.999Z,0.00
2023-04-06T23:25:32.712Z,0.00
2023-04-06T23:30:21.028Z,0.00
2023-04-06T23:35:27.365Z,0.00
2023-04-06T23:40:32.460Z,0.00
2023-04-06T23:45:21.751Z,0.00
2023-04-06T23:50:27.568Z,0.00
2023-04-06T23:55:16.897Z,0.00
